Cameron, Illinois
Current Conditions -  °F | °C
As of 12:35 PM on Saturday 25 Oct 2014 (Local Time) from KGBG Reporting Station
Clear Clear  
Wind Chill: 70°   Ceiling: Unl
Heat Index: 70°   Visibility: 10mi
Dew Point: 44°   Wind: 8mph
Humidity: 38%   Direction: 320°NW
Pressure: 30.03"   Gusts: NA
Location:  40.89°N, 90.52°W
Report Text: KGBG 251735Z AUTO 32007KT 10SM CLR 21/07 A3003 RMK AO2 T02120065
Loading
Personal Weather Stations






























Interactive Weather Map
Tropical Storm Tracking
New forecast layout! Learn more

10-Day Weather Forecast

Advertisements
Track Severe Weather on mobile